createdAt,value
2023-05-14T00:01:50.645Z,10.85
2023-05-14T00:04:17.761Z,10.85
2023-05-14T00:06:44.344Z,10.78
2023-05-14T00:09:11.166Z,10.71
2023-05-14T00:11:37.884Z,10.64
2023-05-14T00:14:04.931Z,10.62
2023-05-14T00:16:31.659Z,10.53
2023-05-14T00:18:58.497Z,10.50
2023-05-14T00:21:25.111Z,10.42
2023-05-14T00:23:52.015Z,10.39
2023-05-14T00:26:18.656Z,10.40
2023-05-14T00:28:45.546Z,10.35
2023-05-14T00:31:12.183Z,10.28
2023-05-14T00:33:39.280Z,10.27
2023-05-14T00:36:05.908Z,10.19
2023-05-14T00:38:32.487Z,10.19
2023-05-14T00:40:59.633Z,10.20
2023-05-14T00:43:26.234Z,10.18
2023-05-14T00:45:54.516Z,10.19
2023-05-14T00:48:22.060Z,10.15
2023-05-14T00:50:49.836Z,10.07
2023-05-14T00:53:17.114Z,10.05
2023-05-14T00:55:44.173Z,10.01
2023-05-14T00:58:11.527Z,9.94
2023-05-14T01:00:39.573Z,9.90
2023-05-14T01:03:07.126Z,9.85
2023-05-14T01:05:44.112Z,9.81
2023-05-14T01:08:25.309Z,9.69
2023-05-14T01:10:56.261Z,9.70
2023-05-14T01:13:34.208Z,9.70
2023-05-14T01:16:02.698Z,9.65
2023-05-14T01:18:30.879Z,9.62
2023-05-14T01:20:57.609Z,9.58
2023-05-14T01:23:24.234Z,9.54
2023-05-14T01:25:50.998Z,9.54
2023-05-14T01:28:24.376Z,9.52
2023-05-14T01:31:06.183Z,9.47
2023-05-14T01:33:35.053Z,9.41
2023-05-14T01:36:03.702Z,9.40
2023-05-14T01:38:31.032Z,9.37
2023-05-14T01:40:58.574Z,9.36
2023-05-14T01:43:25.953Z,9.33
2023-05-14T01:45:52.851Z,9.30
2023-05-14T01:48:19.590Z,9.28
2023-05-14T01:50:46.371Z,9.29
2023-05-14T01:53:13.190Z,9.24
2023-05-14T01:55:39.947Z,9.25
2023-05-14T01:58:06.763Z,9.22
2023-05-14T02:00:33.496Z,9.23
2023-05-14T02:03:00.433Z,9.27
2023-05-14T02:05:27.240Z,9.28
2023-05-14T02:07:53.828Z,9.32
2023-05-14T02:10:20.835Z,9.33
2023-05-14T02:12:47.715Z,9.37
2023-05-14T02:15:14.661Z,9.39
2023-05-14T02:17:41.262Z,9.41
2023-05-14T02:20:08.954Z,9.42
2023-05-14T02:22:35.617Z,9.42
2023-05-14T02:25:02.371Z,9.44
2023-05-14T02:27:29.183Z,9.44
2023-05-14T02:29:56.007Z,9.45
2023-05-14T02:32:22.706Z,9.47
2023-05-14T02:34:49.413Z,9.48
2023-05-14T02:37:16.158Z,9.50
2023-05-14T02:39:45.355Z,9.50
2023-05-14T02:42:12.075Z,9.52
2023-05-14T02:44:38.862Z,9.55
2023-05-14T02:47:05.838Z,9.58
2023-05-14T02:49:32.660Z,9.58
2023-05-14T02:51:59.131Z,9.62
2023-05-14T02:54:26.046Z,9.64
2023-05-14T02:56:52.732Z,9.65
2023-05-14T02:59:19.817Z,9.67
2023-05-14T03:01:51.162Z,9.68
2023-05-14T03:04:18.637Z,9.70
2023-05-14T03:06:45.244Z,9.72
2023-05-14T03:09:11.663Z,9.73
2023-05-14T03:11:38.280Z,9.77
2023-05-14T03:14:04.781Z,9.78
2023-05-14T03:16:31.290Z,9.88
2023-05-14T03:18:58.231Z,9.89
2023-05-14T03:21:25.138Z,9.90
2023-05-14T03:23:53.427Z,9.90
2023-05-14T03:26:19.964Z,9.91
2023-05-14T03:28:46.614Z,9.89
2023-05-14T03:31:13.489Z,9.91
2023-05-14T03:33:40.508Z,9.94
2023-05-14T03:36:07.200Z,9.95
2023-05-14T03:38:36.877Z,9.98
2023-05-14T03:41:03.522Z,9.99
2023-05-14T03:43:30.313Z,10.01
2023-05-14T03:45:56.840Z,10.04
2023-05-14T03:48:23.605Z,10.04
2023-05-14T03:50:50.169Z,10.09
2023-05-14T03:53:17.188Z,10.12
2023-05-14T03:55:43.680Z,10.13
2023-05-14T03:58:10.418Z,10.15
2023-05-14T04:00:37.098Z,10.18
2023-05-14T04:03:03.983Z,10.20
2023-05-14T04:05:30.572Z,10.20
2023-05-14T04:07:57.425Z,10.20
2023-05-14T04:10:24.424Z,10.23
2023-05-14T04:12:51.305Z,10.21
2023-05-14T04:15:17.831Z,10.24
2023-05-14T04:17:44.582Z,10.27
2023-05-14T04:20:11.574Z,10.30
2023-05-14T04:22:38.444Z,10.35
2023-05-14T04:25:05.604Z,10.36
2023-05-14T04:27:34.407Z,10.39
2023-05-14T04:30:01.245Z,10.42
2023-05-14T04:32:28.089Z,10.48
2023-05-14T04:34:54.601Z,10.56
2023-05-14T04:37:21.310Z,10.64
2023-05-14T04:39:48.169Z,10.74
2023-05-14T04:42:14.905Z,10.78
2023-05-14T04:44:41.491Z,10.85
2023-05-14T04:47:08.524Z,10.93
2023-05-14T04:49:35.040Z,11.04
2023-05-14T04:52:01.502Z,11.11
2023-05-14T04:54:28.365Z,11.16
2023-05-14T04:56:54.990Z,11.19
2023-05-14T04:59:22.157Z,11.20
2023-05-14T05:01:48.794Z,11.25
2023-05-14T05:04:15.320Z,11.25
2023-05-14T05:06:42.118Z,11.24
2023-05-14T05:09:08.849Z,11.30
2023-05-14T05:11:35.431Z,11.34
2023-05-14T05:14:01.948Z,11.41
2023-05-14T05:16:28.717Z,11.55
2023-05-14T05:18:55.480Z,11.68
2023-05-14T05:21:22.037Z,11.80
2023-05-14T05:23:48.547Z,11.93
2023-05-14T05:26:15.014Z,12.00
2023-05-14T05:28:41.775Z,12.03
2023-05-14T05:31:08.674Z,12.04
2023-05-14T05:33:35.435Z,12.13
2023-05-14T05:36:01.935Z,12.22
2023-05-14T05:38:28.524Z,12.38
2023-05-14T05:40:55.052Z,12.42
2023-05-14T05:43:21.831Z,12.50
2023-05-14T05:45:48.399Z,12.57
2023-05-14T05:48:14.881Z,12.69
2023-05-14T05:50:41.793Z,12.80
2023-05-14T05:53:08.548Z,12.95
2023-05-14T05:55:35.076Z,13.00
2023-05-14T05:58:01.608Z,13.09
2023-05-14T06:00:29.765Z,13.23
2023-05-14T06:02:56.895Z,13.28
2023-05-14T06:05:23.786Z,13.35
2023-05-14T06:07:50.295Z,13.42
2023-05-14T06:10:17.061Z,13.53
2023-05-14T06:12:43.984Z,13.62
2023-05-14T06:15:12.712Z,13.69
2023-05-14T06:17:39.526Z,13.77
2023-05-14T06:20:07.112Z,13.82
2023-05-14T06:22:34.139Z,13.87
2023-05-14T06:25:01.030Z,13.96
2023-05-14T06:27:27.939Z,14.03
2023-05-14T06:29:54.747Z,14.12
2023-05-14T06:32:21.652Z,14.19
2023-05-14T06:34:48.467Z,14.27
2023-05-14T06:37:18.045Z,14.36
2023-05-14T06:39:44.785Z,14.50
2023-05-14T06:42:11.529Z,14.58
2023-05-14T06:44:38.047Z,14.73
2023-05-14T06:47:04.652Z,14.82
2023-05-14T06:49:31.639Z,14.90
2023-05-14T06:51:59.674Z,15.02
2023-05-14T06:54:26.349Z,15.13
2023-05-14T06:56:54.457Z,15.18
2023-05-14T06:59:21.390Z,15.31
2023-05-14T07:01:48.132Z,15.44
2023-05-14T07:04:15.014Z,15.51
2023-05-14T07:06:41.913Z,15.61
2023-05-14T07:09:08.752Z,15.63
2023-05-14T07:11:35.465Z,15.73
2023-05-14T07:14:02.333Z,15.86
2023-05-14T07:16:28.700Z,15.95
2023-05-14T07:18:55.232Z,16.05
2023-05-14T07:21:22.126Z,16.16
2023-05-14T07:23:48.836Z,16.26
2023-05-14T07:26:15.632Z,16.36
2023-05-14T07:28:44.020Z,16.51
2023-05-14T07:31:10.858Z,16.58
2023-05-14T07:33:37.569Z,16.62
2023-05-14T07:36:04.543Z,16.75
2023-05-14T07:38:31.320Z,16.95
2023-05-14T07:41:01.177Z,16.99
2023-05-14T07:43:27.718Z,17.00
2023-05-14T07:45:54.653Z,17.07
2023-05-14T07:48:21.216Z,17.18
2023-05-14T07:50:49.601Z,17.26
2023-05-14T07:53:16.284Z,17.32
2023-05-14T07:55:44.128Z,17.42
2023-05-14T07:58:10.867Z,17.58
2023-05-14T08:00:37.636Z,17.69
2023-05-14T08:03:04.559Z,17.79
2023-05-14T08:05:31.426Z,17.88
2023-05-14T08:07:58.220Z,17.91
2023-05-14T08:10:25.017Z,18.04
2023-05-14T08:12:51.714Z,18.02
2023-05-14T08:15:18.602Z,18.10
2023-05-14T08:17:46.093Z,18.24
2023-05-14T08:20:12.901Z,18.34
2023-05-14T08:22:39.452Z,18.44
2023-05-14T08:25:06.460Z,18.55
2023-05-14T08:27:32.968Z,18.59
2023-05-14T08:29:59.678Z,18.80
2023-05-14T08:32:26.630Z,18.95
2023-05-14T08:34:53.227Z,19.15
2023-05-14T08:37:22.183Z,19.22
2023-05-14T08:39:49.345Z,19.23
2023-05-14T08:42:20.865Z,19.33
2023-05-14T08:44:57.560Z,19.40
2023-05-14T08:47:25.754Z,19.48
2023-05-14T08:49:58.400Z,19.53
2023-05-14T08:52:25.157Z,19.82
2023-05-14T08:54:52.878Z,20.23
2023-05-14T08:57:22.439Z,20.44
2023-05-14T08:59:49.438Z,20.67
2023-05-14T09:02:16.745Z,20.78
2023-05-14T09:04:43.741Z,20.92
2023-05-14T09:07:11.045Z,20.91
2023-05-14T09:09:38.578Z,20.99
2023-05-14T09:12:06.381Z,21.00
2023-05-14T09:14:33.786Z,21.09
2023-05-14T09:17:00.387Z,21.23
2023-05-14T09:19:27.238Z,21.58
2023-05-14T09:21:58.419Z,21.34
2023-05-14T09:24:27.061Z,21.77
2023-05-14T09:26:55.040Z,21.74
2023-05-14T09:29:21.860Z,21.90
2023-05-14T09:31:50.863Z,21.89
2023-05-14T09:34:29.178Z,22.01
2023-05-14T09:37:18.698Z,22.03
2023-05-14T09:39:45.479Z,22.30
2023-05-14T09:42:12.161Z,22.46
2023-05-14T09:44:39.022Z,22.48
2023-05-14T09:47:06.645Z,22.68
2023-05-14T09:49:33.877Z,22.94
2023-05-14T09:52:02.171Z,23.21
2023-05-14T09:54:30.555Z,23.18
2023-05-14T09:56:57.417Z,23.15
2023-05-14T09:59:24.628Z,22.54
2023-05-14T10:01:52.713Z,22.55
2023-05-14T10:04:20.133Z,22.71
2023-05-14T10:06:51.433Z,23.23
2023-05-14T10:09:22.217Z,23.42
2023-05-14T10:11:53.579Z,23.20
2023-05-14T10:14:23.377Z,23.29
2023-05-14T10:16:51.689Z,23.58
2023-05-14T10:19:22.597Z,23.42
2023-05-14T10:22:12.588Z,23.68
2023-05-14T10:24:39.696Z,23.62
2023-05-14T10:27:06.921Z,23.08
2023-05-14T10:29:35.009Z,22.78
2023-05-14T10:32:08.251Z,22.60
2023-05-14T10:34:42.937Z,22.90
2023-05-14T10:37:41.690Z,22.52
2023-05-14T10:40:09.663Z,22.15
2023-05-14T10:42:38.384Z,22.06
2023-05-14T10:45:15.887Z,21.96
2023-05-14T10:47:44.970Z,21.63
2023-05-14T10:50:14.489Z,21.44
2023-05-14T10:52:45.915Z,21.19
2023-05-14T10:55:17.028Z,21.11
2023-05-14T10:57:46.407Z,20.94
2023-05-14T11:00:14.281Z,20.84
2023-05-14T11:02:43.171Z,20.94
2023-05-14T11:05:16.884Z,20.96
2023-05-14T11:07:48.732Z,21.06
2023-05-14T11:10:17.741Z,21.11
2023-05-14T11:12:48.984Z,21.00
2023-05-14T11:15:23.112Z,20.78
2023-05-14T11:17:51.630Z,20.72
2023-05-14T11:20:18.767Z,20.80
2023-05-14T11:22:47.630Z,20.89
2023-05-14T11:25:15.206Z,21.13
2023-05-14T11:27:43.671Z,21.09
2023-05-14T11:30:15.100Z,21.02
2023-05-14T11:32:44.034Z,20.92
2023-05-14T11:35:11.279Z,20.91
2023-05-14T11:37:38.136Z,20.99
2023-05-14T11:40:09.439Z,21.02
2023-05-14T11:42:37.450Z,20.83
2023-05-14T11:45:04.470Z,20.60
2023-05-14T11:47:31.413Z,20.58
2023-05-14T11:49:59.519Z,20.58
2023-05-14T11:52:26.030Z,20.55
2023-05-14T11:54:52.748Z,20.54
2023-05-14T11:57:20.983Z,20.51
2023-05-14T11:59:49.114Z,20.59
2023-05-14T12:02:18.479Z,20.60
2023-05-14T12:04:51.112Z,20.71
2023-05-14T12:07:18.028Z,20.74
2023-05-14T12:09:45.790Z,20.81
2023-05-14T12:12:12.867Z,21.00
2023-05-14T12:14:41.688Z,21.09
2023-05-14T12:17:26.907Z,21.25
2023-05-14T12:19:53.601Z,21.54
2023-05-14T12:22:21.788Z,21.47
2023-05-14T12:24:59.055Z,21.66
2023-05-14T12:27:27.597Z,21.95
2023-05-14T12:30:19.353Z,22.09
2023-05-14T12:32:48.261Z,22.39
2023-05-14T12:35:15.083Z,22.70
2023-05-14T12:37:41.775Z,22.70
2023-05-14T12:40:08.328Z,22.57
2023-05-14T12:42:35.250Z,22.62
2023-05-14T12:45:02.620Z,22.49
2023-05-14T12:47:29.285Z,22.29
2023-05-14T12:49:55.691Z,21.88
2023-05-14T12:52:36.104Z,21.38
2023-05-14T12:55:05.580Z,21.26
2023-05-14T12:57:32.335Z,21.09
2023-05-14T12:59:59.841Z,20.92
2023-05-14T13:02:26.579Z,20.90
2023-05-14T13:04:53.375Z,20.81
2023-05-14T13:07:20.221Z,20.71
2023-05-14T13:09:47.333Z,20.59
2023-05-14T13:12:14.158Z,20.70
2023-05-14T13:14:40.957Z,20.73
2023-05-14T13:17:08.042Z,20.96
2023-05-14T13:19:35.056Z,21.02
2023-05-14T13:22:01.915Z,21.27
2023-05-14T13:24:28.644Z,21.35
2023-05-14T13:26:54.983Z,21.33
2023-05-14T13:29:21.555Z,21.33
2023-05-14T13:31:48.065Z,21.34
2023-05-14T13:34:14.924Z,21.46
2023-05-14T13:36:42.660Z,21.55
2023-05-14T13:39:10.712Z,21.52
2023-05-14T13:41:37.981Z,21.56
2023-05-14T13:44:05.136Z,21.72
2023-05-14T13:46:31.719Z,22.01
2023-05-14T13:48:58.352Z,21.93
2023-05-14T13:51:24.966Z,22.22
2023-05-14T13:53:51.759Z,22.08
2023-05-14T13:56:18.613Z,21.80
2023-05-14T13:58:45.582Z,21.71
2023-05-14T14:01:12.248Z,21.93
2023-05-14T14:03:39.081Z,22.01
2023-05-14T14:06:05.913Z,21.90
2023-05-14T14:08:32.376Z,21.85
2023-05-14T14:10:59.230Z,21.76
2023-05-14T14:13:27.342Z,21.69
2023-05-14T14:15:54.146Z,21.62
2023-05-14T14:18:22.061Z,21.55
2023-05-14T14:20:48.790Z,21.67
2023-05-14T14:23:15.335Z,21.70
2023-05-14T14:25:42.123Z,21.87
2023-05-14T14:28:08.609Z,22.10
2023-05-14T14:30:35.132Z,22.17
2023-05-14T14:33:02.432Z,21.94
2023-05-14T14:35:29.236Z,21.91
2023-05-14T14:37:55.764Z,21.93
2023-05-14T14:40:22.505Z,21.92
2023-05-14T14:42:49.857Z,21.57
2023-05-14T14:45:16.587Z,21.60
2023-05-14T14:47:44.059Z,21.35
2023-05-14T14:50:10.907Z,21.27
2023-05-14T14:52:37.537Z,21.03
2023-05-14T14:55:04.694Z,20.74
2023-05-14T14:57:31.338Z,20.69
2023-05-14T14:59:59.473Z,20.49
2023-05-14T15:02:27.156Z,20.42
2023-05-14T15:04:54.878Z,20.21
2023-05-14T15:07:21.703Z,20.21
2023-05-14T15:09:48.078Z,20.19
2023-05-14T15:12:15.136Z,20.16
2023-05-14T15:14:41.942Z,20.18
2023-05-14T15:17:08.640Z,20.05
2023-05-14T15:19:35.543Z,20.06
2023-05-14T15:22:02.129Z,20.02
2023-05-14T15:24:31.623Z,20.02
2023-05-14T15:26:58.183Z,20.00
2023-05-14T15:29:24.701Z,20.04
2023-05-14T15:31:51.629Z,20.01
2023-05-14T15:34:18.339Z,20.01
2023-05-14T15:36:47.966Z,20.01
2023-05-14T15:39:14.741Z,20.06
2023-05-14T15:41:41.547Z,19.99
2023-05-14T15:44:08.079Z,20.07
2023-05-14T15:46:34.615Z,20.10
2023-05-14T15:49:01.514Z,20.00
2023-05-14T15:51:30.458Z,19.96
2023-05-14T15:53:57.215Z,19.93
2023-05-14T15:56:24.211Z,19.92
2023-05-14T15:58:50.914Z,19.91
2023-05-14T16:01:19.219Z,19.93
2023-05-14T16:03:46.071Z,19.92
2023-05-14T16:06:13.078Z,19.95
2023-05-14T16:08:39.798Z,19.95
2023-05-14T16:11:06.630Z,19.87
2023-05-14T16:13:33.935Z,19.83
2023-05-14T16:16:00.766Z,19.86
2023-05-14T16:18:27.499Z,19.76
2023-05-14T16:20:54.321Z,19.78
2023-05-14T16:23:20.942Z,19.73
2023-05-14T16:25:47.708Z,19.64
2023-05-14T16:28:15.395Z,19.59
2023-05-14T16:30:42.134Z,19.54
2023-05-14T16:33:08.649Z,19.48
2023-05-14T16:35:35.150Z,19.39
2023-05-14T16:38:01.887Z,19.26
2023-05-14T16:40:28.407Z,19.26
2023-05-14T16:42:55.074Z,19.20
2023-05-14T16:45:21.687Z,19.16
2023-05-14T16:47:48.300Z,19.11
2023-05-14T16:50:15.079Z,19.09
2023-05-14T16:52:41.413Z,19.07
2023-05-14T16:55:09.165Z,19.05
2023-05-14T16:57:35.693Z,18.99
2023-05-14T17:00:02.401Z,18.95
2023-05-14T17:02:28.951Z,18.89
2023-05-14T17:04:56.383Z,18.86
2023-05-14T17:07:23.081Z,18.79
2023-05-14T17:09:49.929Z,18.73
2023-05-14T17:12:17.904Z,18.64
2023-05-14T17:14:44.653Z,18.59
2023-05-14T17:17:11.491Z,18.54
2023-05-14T17:19:37.924Z,18.48
2023-05-14T17:22:04.877Z,18.45
2023-05-14T17:24:31.377Z,18.41
2023-05-14T17:26:59.699Z,18.28
2023-05-14T17:29:27.615Z,18.20
2023-05-14T17:31:55.943Z,18.09
2023-05-14T17:34:22.613Z,18.09
2023-05-14T17:36:49.568Z,18.06
2023-05-14T17:39:16.350Z,18.02
2023-05-14T17:41:43.188Z,17.95
2023-05-14T17:44:13.051Z,17.87
2023-05-14T17:46:40.372Z,17.79
2023-05-14T17:49:07.588Z,17.74
2023-05-14T17:51:34.404Z,17.66
2023-05-14T17:54:00.964Z,17.61
2023-05-14T17:56:27.788Z,17.53
2023-05-14T17:58:54.351Z,17.50
2023-05-14T18:01:20.868Z,17.41
2023-05-14T18:03:47.548Z,17.28
2023-05-14T18:06:14.268Z,17.19
2023-05-14T18:08:41.002Z,17.11
2023-05-14T18:11:07.434Z,17.05
2023-05-14T18:13:34.260Z,16.95
2023-05-14T18:16:01.280Z,16.87
2023-05-14T18:18:28.104Z,16.76
2023-05-14T18:20:54.725Z,16.74
2023-05-14T18:23:22.752Z,16.67
2023-05-14T18:25:51.233Z,16.62
2023-05-14T18:28:17.845Z,16.51
2023-05-14T18:30:45.235Z,16.34
2023-05-14T18:33:11.814Z,16.27
2023-05-14T18:35:38.734Z,16.14
2023-05-14T18:38:05.656Z,15.98
2023-05-14T18:40:32.409Z,15.83
2023-05-14T18:42:59.064Z,15.72
2023-05-14T18:45:26.034Z,15.64
2023-05-14T18:47:53.117Z,15.61
2023-05-14T18:50:19.653Z,15.47
2023-05-14T18:52:46.510Z,15.36
2023-05-14T18:55:13.262Z,15.28
2023-05-14T18:57:39.697Z,15.20
2023-05-14T19:00:07.159Z,15.10
2023-05-14T19:02:33.667Z,15.08
2023-05-14T19:05:00.436Z,15.13
2023-05-14T19:07:27.367Z,15.00
2023-05-14T19:09:54.084Z,14.81
2023-05-14T19:12:23.632Z,14.82
2023-05-14T19:14:50.445Z,14.82
2023-05-14T19:17:18.549Z,14.64
2023-05-14T19:19:49.049Z,14.60
2023-05-14T19:22:16.274Z,14.46
2023-05-14T19:24:43.025Z,14.30
2023-05-14T19:27:12.213Z,14.24
2023-05-14T19:29:38.658Z,14.16
2023-05-14T19:32:05.907Z,14.06
2023-05-14T19:34:33.388Z,14.01
2023-05-14T19:37:00.476Z,13.95
2023-05-14T19:39:27.273Z,13.87
2023-05-14T19:41:54.024Z,13.79
2023-05-14T19:44:20.750Z,13.70
2023-05-14T19:46:49.581Z,13.65
2023-05-14T19:49:16.369Z,13.55
2023-05-14T19:51:43.058Z,13.50
2023-05-14T19:54:09.733Z,13.53
2023-05-14T19:56:36.223Z,13.43
2023-05-14T19:59:02.928Z,13.38
2023-05-14T20:01:32.185Z,13.29
2023-05-14T20:03:58.772Z,13.33
2023-05-14T20:06:25.500Z,13.23
2023-05-14T20:08:52.218Z,13.11
2023-05-14T20:11:18.974Z,12.99
2023-05-14T20:13:46.659Z,12.84
2023-05-14T20:16:13.707Z,12.80
2023-05-14T20:18:41.867Z,12.77
2023-05-14T20:21:08.702Z,12.72
2023-05-14T20:23:35.936Z,12.58
2023-05-14T20:26:03.040Z,12.54
2023-05-14T20:28:29.943Z,12.54
2023-05-14T20:30:56.806Z,12.51
2023-05-14T20:33:23.845Z,12.48
2023-05-14T20:35:50.472Z,12.42
2023-05-14T20:38:17.105Z,12.37
2023-05-14T20:40:44.662Z,12.28
2023-05-14T20:43:11.235Z,12.25
2023-05-14T20:45:38.262Z,12.21
2023-05-14T20:48:05.561Z,12.15
2023-05-14T20:50:32.725Z,12.09
2023-05-14T20:52:59.269Z,12.06
2023-05-14T20:55:26.629Z,11.99
2023-05-14T20:57:53.744Z,11.94
2023-05-14T21:00:20.583Z,12.01
2023-05-14T21:02:47.565Z,12.06
2023-05-14T21:05:14.305Z,12.02
2023-05-14T21:07:40.916Z,12.02
2023-05-14T21:10:10.649Z,11.97
2023-05-14T21:12:37.537Z,11.95
2023-05-14T21:15:04.474Z,11.83
2023-05-14T21:17:31.243Z,11.73
2023-05-14T21:19:58.243Z,11.68
2023-05-14T21:22:25.005Z,11.61
2023-05-14T21:24:51.969Z,11.51
2023-05-14T21:27:19.616Z,11.49
2023-05-14T21:29:46.806Z,11.47
2023-05-14T21:32:15.321Z,11.42
2023-05-14T21:34:44.331Z,11.40
2023-05-14T21:37:13.633Z,11.34
2023-05-14T21:39:40.368Z,11.31
2023-05-14T21:42:07.276Z,11.29
2023-05-14T21:44:33.874Z,11.26
2023-05-14T21:47:04.626Z,11.22
2023-05-14T21:49:31.615Z,11.17
2023-05-14T21:51:58.029Z,11.24
2023-05-14T21:54:24.838Z,11.31
2023-05-14T21:56:51.515Z,11.22
2023-05-14T21:59:18.184Z,11.02
2023-05-14T22:02:05.311Z,10.95
2023-05-14T22:04:32.629Z,11.06
2023-05-14T22:07:00.956Z,11.04
2023-05-14T22:09:27.798Z,11.07
2023-05-14T22:11:54.275Z,11.00
2023-05-14T22:14:21.038Z,10.89
2023-05-14T22:16:48.464Z,10.83
2023-05-14T22:19:16.821Z,10.75
2023-05-14T22:21:44.051Z,10.73
2023-05-14T22:24:10.994Z,10.72
2023-05-14T22:26:37.476Z,10.66
2023-05-14T22:29:05.013Z,10.59
2023-05-14T22:31:32.274Z,10.55
2023-05-14T22:33:59.282Z,10.50
2023-05-14T22:36:26.294Z,10.43
2023-05-14T22:38:52.837Z,10.40
2023-05-14T22:41:20.319Z,10.35
2023-05-14T22:43:47.138Z,10.31
2023-05-14T22:46:13.978Z,10.30
2023-05-14T22:48:40.499Z,10.24
2023-05-14T22:51:07.459Z,10.21
2023-05-14T22:53:34.071Z,10.15
2023-05-14T22:56:00.835Z,10.12
2023-05-14T22:58:27.621Z,10.09
2023-05-14T23:00:54.423Z,10.04
2023-05-14T23:03:21.148Z,9.98
2023-05-14T23:05:48.427Z,9.94
2023-05-14T23:08:15.363Z,9.89
2023-05-14T23:10:41.878Z,9.85
2023-05-14T23:13:08.465Z,9.82
2023-05-14T23:15:35.171Z,9.85
2023-05-14T23:18:02.186Z,9.82
2023-05-14T23:20:28.729Z,9.79
2023-05-14T23:22:55.512Z,9.71
2023-05-14T23:25:22.490Z,9.64
2023-05-14T23:27:49.149Z,9.63
2023-05-14T23:30:16.544Z,9.62
2023-05-14T23:32:52.547Z,9.59
2023-05-14T23:35:19.446Z,9.59
2023-05-14T23:37:46.287Z,9.59
2023-05-14T23:40:13.387Z,9.55
2023-05-14T23:42:39.927Z,9.52
2023-05-14T23:45:08.370Z,9.52
2023-05-14T23:47:35.152Z,9.55
2023-05-14T23:50:02.119Z,9.58
2023-05-14T23:52:28.932Z,9.71
2023-05-14T23:54:55.543Z,9.59
2023-05-14T23:57:22.508Z,9.50
2023-05-14T23:59:49.785Z,9.46
